EDT,Max TemperatureF,Mean TemperatureF,Min TemperatureF,Max Dew PointF,MeanDew PointF,Min DewpointF,Max Humidity, Mean Humidity, Min Humidity, Max Sea Level PressureIn, Mean Sea Level PressureIn, Min Sea Level PressureIn, Max VisibilityMiles, Mean VisibilityMiles, Min VisibilityMiles, Max Wind SpeedMPH, Mean Wind SpeedMPH, Max Gust SpeedMPH,PrecipitationIn, CloudCover, Events, WindDirDegrees
2014-4-1,73,60,48,36,30,21,43,31,22,30.15,30.11,30.07,10,10,10,21,7,26,0.00,2,,214
2014-4-2,77,64,51,45,39,30,48,40,28,30.17,30.11,30.07,10,10,10,14,6,20,0.00,3,,224
2014-4-3,77,65,53,55,46,34,100,55,29,30.10,30.01,29.90,10,10,10,24,9,37,0.04,3,Rain-Thunderstorm,219
2014-4-4,62,56,50,59,50,41,100,72,63,30.00,29.86,29.79,10,10,2,24,10,31,0.27,4,Rain-Thunderstorm,215
2014-4-5,51,44,37,41,30,25,81,61,35,30.12,30.07,29.96,10,10,10,13,7,20,0.00,4,,337
2014-4-6,62,48,33,32,28,23,75,46,22,30.12,30.05,29.97,10,10,10,13,5,17,0.00,2,,141
2014-4-7,62,52,42,52,47,32,100,82,44,30.01,29.74,29.55,10,10,5,26,11,37,0.40,7,Rain,174
2014-4-8,53,47,41,46,34,28,100,61,38,29.79,29.73,29.64,10,10,7,25,11,33,0.00,8,Rain,295
2014-4-9,57,49,41,43,33,23,100,59,29,30.14,29.97,29.80,10,10,5,14,7,25,0.04,5,Rain,297
2014-4-10,68,54,41,32,28,23,61,38,21,30.22,30.16,30.10,10,10,10,20,8,24,0.00,0,,198
2014-4-11,69,62,55,37,35,30,45,36,31,30.20,30.15,30.08,10,10,10,21,16,30,0.00,1,Thunderstorm,228
2014-4-12,73,62,50,45,41,36,72,46,27,30.27,30.18,30.11,10,10,10,16,6,24,0.00,1,,203
2014-4-13,78,68,59,46,42,36,59,40,21,30.19,30.09,30.01,10,10,10,21,11,28,0.00,0,,200
2014-4-14,66,62,59,52,49,46,77,60,49,30.00,29.90,29.79,10,10,10,21,14,32,0.00,4,,180
2014-4-15,60,45,30,55,36,19,100,86,60,30.12,29.89,29.69,10,7,0,17,11,24,0.21,8,Rain-Snow,302
2014-4-16,55,40,24,21,17,14,74,48,21,30.33,30.26,30.11,10,10,10,14,6,18,0.00,0,,40
2014-4-17,66,50,35,23,16,5,52,30,10,30.44,30.36,30.28,10,10,10,12,7,20,0.00,0,,149
2014-4-18,60,51,42,34,27,18,47,36,29,30.37,30.31,30.23,10,10,10,9,4,,0.00,1,,166
2014-4-19,66,58,50,34,31,28,54,38,24,30.25,30.21,30.17,10,10,10,18,6,25,0.00,0,,22
2014-4-20,73,60,46,34,25,12,62,32,10,30.30,30.24,30.20,10,10,10,8,2,,0.00,0,,153
2014-4-21,77,62,46,39,31,23,46,31,19,30.20,30.10,29.98,10,10,10,13,6,17,0.00,0,,214
2014-4-22,68,60,53,59,46,32,94,60,41,29.98,29.88,29.80,10,10,4,14,6,23,0.07,6,Rain,260
2014-4-23,60,50,39,32,25,21,66,41,23,30.08,29.99,29.89,10,10,10,13,6,18,0.00,0,,327
2014-4-24,75,58,41,30,24,18,61,31,12,30.10,30.02,29.92,10,10,10,10,4,16,0.00,1,,145
2014-4-25,62,56,51,59,44,30,100,63,31,30.02,29.88,29.80,10,10,2,20,9,26,0.18,6,Rain-Thunderstorm,229
2014-4-26,73,58,44,50,37,27,100,50,18,30.07,30.03,29.98,10,10,1,16,5,21,0.00,0,,248
2014-4-27,80,66,51,43,34,27,50,30,14,30.08,30.01,29.95,10,10,10,12,3,17,0.00,0,,207
2014-4-28,73,66,60,63,56,45,100,77,43,29.98,29.91,29.84,10,10,5,18,9,24,0.24,5,Rain-Thunderstorm,181
2014-4-29,73,66,60,61,57,50,100,80,44,29.93,29.84,29.74,10,10,5,17,10,24,0.45,6,Rain-Thunderstorm,175
2014-4-30,73,63,53,59,53,50,100,74,46,29.96,29.89,29.84,10,10,5,17,8,29,0.09,7,Rain,185